Time;durP1;ratioP1;P1;durP2;ratioP2;P2;SDS_P1;SDS_P2;PMS_P1;PMS_P2;Temp;Humidity;BMP_temperature;BMP_pressure;BME280_temperature;BME280_humidity;BME280_pressure;Samples;Min_cycle;Max_cycle;Signal;HPM_P1;HPM_P2
2020/12/16 00:01:16;;;;;;;19.13;17.10;;;6.70;99.90;;;;;;5015973;28;20328;-42
2020/12/16 00:03:44;;;;;;;20.20;17.05;;;6.80;99.90;;;;;;5016230;28;20224;-43
2020/12/16 00:06:11;;;;;;;21.17;17.60;;;6.70;99.90;;;;;;5015772;28;20295;-41
2020/12/16 00:08:38;;;;;;;19.40;17.27;;;6.70;99.90;;;;;;5016180;28;20295;-42
2020/12/16 00:11:05;;;;;;;21.02;17.75;;;6.60;99.90;;;;;;5016145;28;20297;-42
2020/12/16 00:13:32;;;;;;;19.35;17.35;;;6.60;99.90;;;;;;5015983;28;20216;-41
2020/12/16 00:15:59;;;;;;;20.13;17.07;;;6.60;99.90;;;;;;5016012;28;20260;-41
2020/12/16 00:18:26;;;;;;;23.07;19.10;;;6.50;99.90;;;;;;5015854;28;20736;-42
2020/12/16 00:20:54;;;;;;;20.83;17.67;;;6.50;99.90;;;;;;5015805;28;20635;-41
2020/12/16 00:23:21;;;;;;;22.03;18.73;;;6.40;99.90;;;;;;5015951;28;20673;-41
2020/12/16 00:25:48;;;;;;;21.33;18.40;;;6.40;99.90;;;;;;5015804;28;20308;-42
2020/12/16 00:28:15;;;;;;;19.10;17.10;;;6.40;99.90;;;;;;5015483;28;20711;-41
2020/12/16 00:30:47;;;;;;;21.33;18.00;;;6.30;99.90;;;;;;5015619;28;20312;-41
2020/12/16 00:33:15;;;;;;;21.17;17.63;;;6.30;99.90;;;;;;5015605;28;20217;-42
2020/12/16 00:35:43;;;;;;;24.73;18.23;;;6.20;99.90;;;;;;5015768;28;20255;-42
2020/12/16 00:38:11;;;;;;;33.33;22.73;;;6.20;99.90;;;;;;5015617;28;20227;-43
2020/12/16 00:40:39;;;;;;;22.23;18.27;;;6.20;99.90;;;;;;5015420;28;20279;-42
2020/12/16 00:43:06;;;;;;;20.20;16.83;;;6.20;99.90;;;;;;5015252;28;20720;-42
2020/12/16 00:45:33;;;;;;;21.27;17.17;;;6.20;99.90;;;;;;5015313;28;20213;-42
2020/12/16 00:48:00;;;;;;;23.20;17.37;;;6.30;99.90;;;;;;5015061;28;20225;-42
2020/12/16 00:50:27;;;;;;;19.65;17.52;;;6.40;99.90;;;;;;5015337;28;20240;-42
2020/12/16 00:52:54;;;;;;;20.17;16.57;;;6.50;99.90;;;;;;5015285;28;20430;-42
2020/12/16 00:55:22;;;;;;;22.30;18.00;;;6.50;99.90;;;;;;5015446;28;20300;-42
2020/12/16 00:57:49;;;;;;;21.73;18.17;;;6.40;99.90;;;;;;5015572;28;20292;-42
2020/12/16 01:00:18;;;;;;;24.90;18.80;;;6.40;99.90;;;;;;5014848;28;20241;-42
2020/12/16 01:02:46;;;;;;;18.27;15.83;;;6.30;99.90;;;;;;5014723;28;20257;-41
2020/12/16 01:05:13;;;;;;;22.90;17.33;;;6.20;99.90;;;;;;5015093;28;20267;-42
2020/12/16 01:07:41;;;;;;;21.50;17.10;;;6.10;99.90;;;;;;5014899;28;20268;-42
2020/12/16 01:10:10;;;;;;;21.73;17.63;;;6.00;99.90;;;;;;5014833;28;20296;-41
2020/12/16 01:12:38;;;;;;;19.20;16.43;;;5.90;99.90;;;;;;5014790;28;20259;-43
2020/12/16 01:15:07;;;;;;;19.93;17.50;;;5.80;99.90;;;;;;5014923;28;20224;-42
2020/12/16 01:17:37;;;;;;;20.90;16.53;;;5.90;99.90;;;;;;5014576;28;20730;-41
2020/12/16 01:20:04;;;;;;;17.47;15.60;;;5.90;99.90;;;;;;5014913;28;20237;-41
2020/12/16 01:22:32;;;;;;;19.30;16.20;;;5.90;99.90;;;;;;5014700;28;20784;-42
2020/12/16 01:24:59;;;;;;;19.93;16.73;;;5.90;99.90;;;;;;5014482;28;20629;-42
2020/12/16 01:27:25;;;;;;;26.93;17.63;;;6.00;99.90;;;;;;5014410;28;20319;-41
2020/12/16 01:29:53;;;;;;;21.73;16.23;;;6.10;99.90;;;;;;5014456;28;20678;-41
2020/12/16 01:32:20;;;;;;;20.67;17.58;;;6.20;99.90;;;;;;5014555;28;20292;-42
2020/12/16 01:34:47;;;;;;;17.90;15.63;;;6.20;99.90;;;;;;5014520;28;20317;-41
2020/12/16 01:37:14;;;;;;;20.50;17.03;;;6.30;99.90;;;;;;5014493;28;20687;-46
2020/12/16 01:39:41;;;;;;;18.52;15.57;;;6.30;99.90;;;;;;5014439;28;20307;-49
2020/12/16 01:42:08;;;;;;;19.80;16.70;;;6.30;99.90;;;;;;5014372;28;20232;-48
2020/12/16 01:44:36;;;;;;;19.03;16.20;;;6.30;99.90;;;;;;5014368;28;20231;-47
2020/12/16 01:47:04;;;;;;;18.00;15.95;;;6.30;99.90;;;;;;5014125;28;20408;-43
2020/12/16 01:49:31;;;;;;;17.50;15.70;;;6.30;99.90;;;;;;5014409;28;20211;-43
2020/12/16 01:52:04;;;;;;;16.60;14.87;;;6.30;99.90;;;;;;5014342;28;20247;-44
2020/12/16 01:54:34;;;;;;;19.43;15.63;;;6.30;99.90;;;;;;5014110;28;20225;-43
2020/12/16 01:57:03;;;;;;;17.13;15.20;;;6.20;99.90;;;;;;5014108;28;20292;-42
2020/12/16 01:59:35;;;;;;;17.00;15.07;;;6.30;99.90;;;;;;5014200;28;20209;-44
2020/12/16 02:02:06;;;;;;;18.38;15.10;;;6.30;99.90;;;;;;5013950;28;20264;-42
2020/12/16 02:04:36;;;;;;;17.27;15.13;;;6.30;99.90;;;;;;5014137;28;20299;-42
2020/12/16 02:07:08;;;;;;;17.17;15.03;;;6.30;99.90;;;;;;5013678;28;20670;-40
2020/12/16 02:09:39;;;;;;;16.23;14.53;;;6.20;99.90;;;;;;5013937;28;20205;-40
2020/12/16 02:12:12;;;;;;;16.60;14.90;;;6.20;99.90;;;;;;5013797;28;20317;-41
2020/12/16 02:14:39;;;;;;;18.27;15.00;;;6.20;99.90;;;;;;5013706;28;20609;-40
2020/12/16 02:17:08;;;;;;;19.70;15.07;;;6.10;99.90;;;;;;5014365;28;20235;-40
2020/12/16 02:19:41;;;;;;;18.97;15.57;;;6.20;99.90;;;;;;5013364;28;20252;-41
2020/12/16 02:22:10;;;;;;;17.50;15.63;;;6.20;99.90;;;;;;5014270;28;20296;-41
2020/12/16 02:24:42;;;;;;;17.17;14.93;;;6.10;99.90;;;;;;5013760;28;20304;-41
2020/12/16 02:27:12;;;;;;;16.70;14.90;;;6.10;99.90;;;;;;5013619;28;20651;-42
2020/12/16 02:29:39;;;;;;;17.77;14.97;;;6.10;99.90;;;;;;5013624;28;20740;-42
2020/12/16 02:32:07;;;;;;;18.33;16.40;;;6.10;99.90;;;;;;5013481;28;20233;-42
2020/12/16 02:34:34;;;;;;;21.27;15.13;;;6.10;99.90;;;;;;5013667;28;20213;-44
2020/12/16 02:37:01;;;;;;;17.00;13.93;;;6.10;99.90;;;;;;5013531;28;20284;-44
2020/12/16 02:39:28;;;;;;;18.43;15.67;;;6.20;99.90;;;;;;5013395;28;20247;-47
2020/12/16 02:42:00;;;;;;;17.60;15.73;;;6.20;99.90;;;;;;5013234;28;20259;-42
2020/12/16 02:44:28;;;;;;;16.10;14.43;;;6.20;99.90;;;;;;5013026;28;20255;-42
2020/12/16 02:46:58;;;;;;;16.30;14.33;;;6.20;99.90;;;;;;5012832;28;20225;-41
2020/12/16 02:49:25;;;;;;;17.53;14.73;;;6.20;99.90;;;;;;5013314;28;20295;-42
2020/12/16 02:51:52;;;;;;;17.40;14.90;;;6.10;99.90;;;;;;5013245;28;20642;-43
2020/12/16 02:54:19;;;;;;;19.17;16.13;;;6.10;99.90;;;;;;5013047;28;20268;-43
2020/12/16 02:56:49;;;;;;;18.87;15.63;;;6.10;99.90;;;;;;5013027;28;20223;-42
2020/12/16 02:59:17;;;;;;;22.30;16.63;;;6.10;99.90;;;;;;5012825;28;20764;-42
2020/12/16 03:01:48;;;;;;;19.13;15.87;;;6.20;99.90;;;;;;5012685;28;20260;-41
2020/12/16 03:04:15;;;;;;;17.67;15.13;;;6.20;99.90;;;;;;5013260;28;20407;-42
2020/12/16 03:06:42;;;;;;;16.30;14.27;;;6.20;99.90;;;;;;5012999;28;20244;-41
2020/12/16 03:09:09;;;;;;;18.67;15.20;;;6.30;99.90;;;;;;5012952;28;20245;-41
2020/12/16 03:11:36;;;;;;;17.70;15.73;;;6.30;99.90;;;;;;5012786;28;20289;-42
2020/12/16 03:14:03;;;;;;;20.30;15.93;;;6.30;99.90;;;;;;5012851;28;20213;-41
2020/12/16 03:16:31;;;;;;;17.17;15.20;;;6.40;99.90;;;;;;5012863;28;20668;-39
2020/12/16 03:18:59;;;;;;;17.43;15.53;;;6.40;99.90;;;;;;5012655;28;20327;-39
2020/12/16 03:21:26;;;;;;;18.07;16.17;;;6.40;99.90;;;;;;5012391;28;20307;-40
2020/12/16 03:23:54;;;;;;;20.27;16.37;;;6.30;99.90;;;;;;5012659;28;20268;-39
2020/12/16 03:26:22;;;;;;;17.63;15.80;;;6.30;99.90;;;;;;5012535;28;20248;-42
2020/12/16 03:28:49;;;;;;;17.17;15.40;;;6.30;99.90;;;;;;5012435;28;20815;-41
2020/12/16 03:31:16;;;;;;;18.30;16.17;;;6.20;99.90;;;;;;5011764;28;20670;-42
2020/12/16 03:33:45;;;;;;;22.03;16.57;;;6.10;99.90;;;;;;5012595;28;20300;-40
2020/12/16 03:36:15;;;;;;;21.03;16.10;;;6.00;99.90;;;;;;5012275;28;20209;-42
2020/12/16 03:38:42;;;;;;;19.23;14.60;;;6.00;99.90;;;;;;5012400;28;20207;-40
2020/12/16 03:41:10;;;;;;;18.60;15.87;;;6.00;99.90;;;;;;5012620;28;20305;-38
2020/12/16 03:43:37;;;;;;;19.33;16.50;;;6.00;99.90;;;;;;5012282;28;20209;-39
2020/12/16 03:46:08;;;;;;;17.53;15.00;;;5.90;99.90;;;;;;5012622;28;20369;-40
2020/12/16 03:48:36;;;;;;;19.17;14.93;;;6.00;99.90;;;;;;5012272;28;20229;-42
2020/12/16 03:51:05;;;;;;;20.87;16.67;;;6.00;99.90;;;;;;5012177;28;20308;-43
2020/12/16 03:53:34;;;;;;;18.13;16.03;;;6.10;99.90;;;;;;5012205;28;20589;-44
2020/12/16 03:56:04;;;;;;;16.40;14.70;;;6.10;99.90;;;;;;5012382;28;20240;-43
2020/12/16 03:58:32;;;;;;;17.13;15.27;;;6.10;99.90;;;;;;5012072;28;20625;-42
2020/12/16 04:01:06;;;;;;;17.83;15.93;;;6.10;99.90;;;;;;5012128;28;20328;-42
2020/12/16 04:03:33;;;;;;;18.57;15.53;;;6.10;99.90;;;;;;5012064;28;20536;-42
2020/12/16 04:06:01;;;;;;;18.63;16.07;;;6.10;99.90;;;;;;5011722;28;20633;-40
2020/12/16 04:08:28;;;;;;;17.27;15.47;;;6.10;99.90;;;;;;5011723;28;20775;-38
2020/12/16 04:10:56;;;;;;;18.23;15.40;;;6.10;99.90;;;;;;5011601;28;20219;-39
2020/12/16 04:13:23;;;;;;;19.70;16.50;;;6.20;99.90;;;;;;5011871;28;20245;-39
2020/12/16 04:15:50;;;;;;;17.17;15.30;;;6.20;99.90;;;;;;5011994;28;20288;-39
2020/12/16 04:18:17;;;;;;;20.63;16.23;;;6.20;99.90;;;;;;5011900;28;20227;-39
2020/12/16 04:20:44;;;;;;;17.07;15.27;;;6.20;99.90;;;;;;5012011;28;20293;-40
2020/12/16 04:23:11;;;;;;;18.83;16.20;;;6.20;99.90;;;;;;5011841;28;20317;-40
2020/12/16 04:25:39;;;;;;;19.77;14.93;;;6.20;99.90;;;;;;5012199;28;20201;-41
2020/12/16 04:28:07;;;;;;;22.77;16.20;;;6.30;99.90;;;;;;5011881;28;20257;-41
2020/12/16 04:30:34;;;;;;;19.53;15.27;;;6.30;99.90;;;;;;5011735;28;20300;-45
2020/12/16 04:33:01;;;;;;;18.23;15.43;;;6.30;99.90;;;;;;5011901;28;20213;-41
2020/12/16 04:35:29;;;;;;;19.27;17.23;;;6.30;99.90;;;;;;5012156;28;20209;-41
2020/12/16 04:37:56;;;;;;;17.27;15.13;;;6.30;99.90;;;;;;5011872;28;20206;-41
2020/12/16 04:40:24;;;;;;;19.90;16.57;;;6.30;99.90;;;;;;5011666;28;20297;-41
2020/12/16 04:43:01;;;;;;;18.70;15.38;;;6.30;99.90;;;;;;5015005;28;20624;-40
2020/12/16 04:45:29;;;;;;;16.40;14.57;;;6.20;99.90;;;;;;5015315;28;20236;-41
2020/12/16 04:47:57;;;;;;;20.03;16.17;;;6.20;99.90;;;;;;5015435;28;20233;-42
2020/12/16 04:50:24;;;;;;;18.30;16.27;;;6.20;99.90;;;;;;5015395;28;20209;-41
2020/12/16 04:52:52;;;;;;;17.43;14.53;;;6.20;99.90;;;;;;5015358;28;20257;-41
2020/12/16 04:55:20;;;;;;;19.02;15.00;;;6.10;99.90;;;;;;5015135;28;20300;-40
2020/12/16 04:57:51;;;;;;;18.33;16.43;;;6.00;99.90;;;;;;5014961;28;20209;-39
2020/12/16 05:00:20;;;;;;;16.93;15.13;;;6.00;99.90;;;;;;5015292;28;20237;-39
2020/12/16 05:02:53;;;;;;;19.50;17.50;;;6.00;99.90;;;;;;5015185;28;20244;-38
2020/12/16 05:05:20;;;;;;;31.27;28.30;;;6.00;99.90;;;;;;5015345;28;20218;-38
2020/12/16 05:07:50;;;;;;;22.33;18.40;;;5.90;99.90;;;;;;5014844;28;20332;-41
2020/12/16 05:10:30;;;;;;;18.83;16.87;;;5.80;99.90;;;;;;5014770;28;20205;-41
2020/12/16 05:13:07;;;;;;;20.37;17.23;;;5.80;99.90;;;;;;5014940;28;20629;-41
2020/12/16 05:15:35;;;;;;;22.93;20.03;;;5.80;99.90;;;;;;5014795;28;20209;-42
2020/12/16 05:18:11;;;;;;;25.97;20.40;;;5.70;99.90;;;;;;5014818;28;20755;-41
2020/12/16 05:20:39;;;;;;;20.00;15.77;;;5.70;99.90;;;;;;5014590;28;20252;-42
2020/12/16 05:23:07;;;;;;;17.77;15.82;;;5.70;99.90;;;;;;5014414;28;20287;-44
2020/12/16 05:25:36;;;;;;;18.23;16.20;;;5.80;99.90;;;;;;5014220;28;20267;-37
2020/12/16 05:28:04;;;;;;;18.00;15.40;;;5.70;99.90;;;;;;5014500;28;20233;-37
2020/12/16 05:30:33;;;;;;;22.07;15.97;;;5.70;99.90;;;;;;5014455;28;20213;-39
2020/12/16 05:33:04;;;;;;;18.55;15.27;;;5.80;99.90;;;;;;5014624;28;20209;-40
2020/12/16 05:35:35;;;;;;;17.27;14.93;;;5.80;99.90;;;;;;5014357;28;20642;-41
2020/12/16 05:38:05;;;;;;;18.63;15.53;;;5.80;99.90;;;;;;5014735;28;20201;-40
2020/12/16 05:40:36;;;;;;;17.77;15.23;;;5.80;99.90;;;;;;5014407;28;20213;-41
2020/12/16 05:43:04;;;;;;;20.35;16.15;;;5.80;99.90;;;;;;5014555;28;20639;-38
2020/12/16 05:45:36;;;;;;;18.53;15.87;;;5.80;99.90;;;;;;5014340;28;20219;-38
2020/12/16 05:48:06;;;;;;;20.13;16.77;;;5.80;99.90;;;;;;5014364;28;20696;-38
2020/12/16 05:50:37;;;;;;;19.37;14.67;;;5.80;99.90;;;;;;5014172;28;20205;-38
2020/12/16 05:53:10;;;;;;;18.43;14.70;;;5.70;99.90;;;;;;5013474;28;20264;-37
2020/12/16 05:55:53;;;;;;;17.73;15.43;;;5.70;99.90;;;;;;5014005;28;20687;-38
2020/12/16 05:58:23;;;;;;;19.43;16.50;;;5.60;99.90;;;;;;5013954;28;20693;-41
2020/12/16 06:00:55;;;;;;;19.27;15.70;;;5.50;99.90;;;;;;5013562;28;20268;-40
2020/12/16 06:03:28;;;;;;;16.40;14.70;;;5.50;99.90;;;;;;5014152;28;20220;-40
2020/12/16 06:05:58;;;;;;;19.13;15.70;;;5.50;99.90;;;;;;5013948;28;20220;-39
2020/12/16 06:08:29;;;;;;;22.17;16.93;;;5.50;99.90;;;;;;5013694;28;20275;-39
2020/12/16 06:10:57;;;;;;;20.80;17.20;;;5.40;99.90;;;;;;5013711;28;20304;-40
2020/12/16 06:13:25;;;;;;;20.77;17.67;;;5.30;99.90;;;;;;5013624;28;20251;-39
2020/12/16 06:15:57;;;;;;;24.27;19.73;;;5.40;99.90;;;;;;5013766;28;20248;-39
2020/12/16 06:18:27;;;;;;;29.23;19.13;;;5.40;99.90;;;;;;5013653;28;20292;-40
2020/12/16 06:20:54;;;;;;;26.37;17.70;;;5.40;99.90;;;;;;5013761;28;20244;-39
2020/12/16 06:23:29;;;;;;;24.00;17.20;;;5.50;99.90;;;;;;5013289;28;20336;-39
2020/12/16 06:26:10;;;;;;;26.23;19.30;;;5.50;99.90;;;;;;5012862;28;20259;-40
2020/12/16 06:28:37;;;;;;;26.47;17.50;;;5.50;99.90;;;;;;5014281;28;20699;-39
2020/12/16 06:31:14;;;;;;;38.43;17.53;;;5.50;99.90;;;;;;5013537;28;20288;-40
2020/12/16 06:33:45;;;;;;;28.98;16.40;;;5.50;99.90;;;;;;5012993;28;20209;-40
2020/12/16 06:36:12;;;;;;;36.07;18.17;;;5.50;99.90;;;;;;5013411;28;20237;-40
2020/12/16 06:38:43;;;;;;;41.00;16.80;;;5.50;99.90;;;;;;5013285;28;20251;-40
2020/12/16 06:41:13;;;;;;;34.22;17.67;;;5.40;99.90;;;;;;5013380;28;20232;-40
2020/12/16 06:43:42;;;;;;;28.13;19.80;;;5.30;99.90;;;;;;5013145;28;20296;-39
2020/12/16 06:46:46;;;;;;;23.47;18.27;;;5.20;99.90;;;;;;5013896;28;20210;-40
2020/12/16 06:49:38;;;;;;;23.60;19.60;;;5.20;99.90;;;;;;5013351;28;20408;-39
2020/12/16 06:52:09;;;;;;;23.23;17.73;;;5.20;99.90;;;;;;5013838;28;20217;-42
2020/12/16 06:54:41;;;;;;;23.23;17.83;;;5.30;99.90;;;;;;5014284;28;20287;-42
2020/12/16 06:57:18;;;;;;;21.02;17.52;;;5.40;99.90;;;;;;5012784;28;20245;-42
2020/12/16 06:59:56;;;;;;;20.17;17.10;;;5.40;99.90;;;;;;5012718;28;20702;-44
2020/12/16 07:02:31;;;;;;;25.93;18.63;;;5.50;99.90;;;;;;5012611;28;20243;-43
2020/12/16 07:05:00;;;;;;;19.73;16.47;;;5.40;99.90;;;;;;5012534;28;20209;-43
2020/12/16 07:07:48;;;;;;;24.00;18.57;;;5.50;99.90;;;;;;5013191;28;20279;-42
2020/12/16 07:10:49;;;;;;;22.97;18.83;;;5.60;99.90;;;;;;5012523;28;20796;-43
2020/12/16 07:13:22;;;;;;;36.33;30.13;;;5.60;99.90;;;;;;4980326;28;20320;-42
2020/12/16 07:15:53;;;;;;;31.07;25.97;;;5.60;99.90;;;;;;5012785;28;20219;-42
2020/12/16 07:18:39;;;;;;;30.97;24.77;;;5.50;99.90;;;;;;5012563;28;20209;-41
2020/12/16 07:21:20;;;;;;;38.38;30.40;;;5.50;99.90;;;;;;5012492;28;20311;-43
2020/12/16 07:23:51;;;;;;;32.17;24.37;;;5.50;99.90;;;;;;5012284;28;20244;-41
2020/12/16 07:26:25;;;;;;;55.30;42.30;;;5.50;99.90;;;;;;5012293;28;20671;-40
2020/12/16 07:28:53;;;;;;;28.80;25.73;;;5.60;99.90;;;;;;5012595;28;20706;-42
2020/12/16 07:31:20;;;;;;;27.77;21.90;;;5.60;99.90;;;;;;5012289;28;20210;-42
2020/12/16 07:33:47;;;;;;;27.97;24.37;;;5.70;99.90;;;;;;5012361;28;20213;-43
2020/12/16 07:36:16;;;;;;;20.83;18.03;;;5.70;99.90;;;;;;5012931;28;20303;-42
2020/12/16 07:38:51;;;;;;;20.67;17.80;;;5.80;99.90;;;;;;5012176;28;20611;-42
2020/12/16 07:41:24;;;;;;;21.10;17.43;;;5.80;99.90;;;;;;5012537;28;20213;-42
2020/12/16 07:43:51;;;;;;;18.50;16.50;;;5.80;99.90;;;;;;5012495;28;20300;-42
2020/12/16 07:46:23;;;;;;;19.37;16.90;;;5.80;99.90;;;;;;5012166;28;20233;-42
2020/12/16 07:48:51;;;;;;;21.10;17.10;;;5.80;99.90;;;;;;5011977;28;20227;-42
2020/12/16 07:51:19;;;;;;;20.38;17.58;;;5.90;99.90;;;;;;5012163;28;20209;-42
2020/12/16 07:53:48;;;;;;;29.63;24.60;;;5.90;99.90;;;;;;5012161;28;20637;-41
2020/12/16 07:56:16;;;;;;;22.40;18.73;;;6.10;99.90;;;;;;5012107;28;20660;-41
2020/12/16 07:58:45;;;;;;;35.37;26.93;;;6.20;99.90;;;;;;5011926;28;20606;-42
2020/12/16 08:01:13;;;;;;;20.90;16.27;;;6.30;99.90;;;;;;5011784;28;20328;-42
2020/12/16 08:03:42;;;;;;;20.02;16.42;;;6.40;99.90;;;;;;5012239;28;20209;-43
2020/12/16 08:06:10;;;;;;;20.03;17.23;;;6.50;99.90;;;;;;5012031;28;20209;-42
2020/12/16 08:08:48;;;;;;;21.30;17.20;;;6.50;99.90;;;;;;5011765;28;20770;-39
2020/12/16 08:11:19;;;;;;;19.73;17.63;;;6.50;99.90;;;;;;5012032;28;20292;-44
2020/12/16 08:13:48;;;;;;;17.90;15.77;;;6.60;99.90;;;;;;5011705;28;20304;-41
2020/12/16 08:16:15;;;;;;;19.87;16.50;;;6.70;99.90;;;;;;5013009;28;20218;-41
2020/12/16 08:18:43;;;;;;;18.73;16.73;;;6.80;99.90;;;;;;5015788;28;20211;-42
2020/12/16 08:21:21;;;;;;;20.90;17.08;;;6.80;99.90;;;;;;5015597;28;20212;-42
2020/12/16 08:23:48;;;;;;;23.73;18.87;;;6.80;99.90;;;;;;5015753;28;20240;-43
2020/12/16 08:26:16;;;;;;;19.73;16.80;;;6.70;99.90;;;;;;5015589;28;20209;-40
2020/12/16 08:28:43;;;;;;;19.17;16.93;;;6.60;99.90;;;;;;5015663;28;20236;-45
2020/12/16 08:31:21;;;;;;;21.50;17.60;;;6.50;99.90;;;;;;5015436;28;20213;-41
2020/12/16 08:33:50;;;;;;;20.80;17.30;;;6.50;99.90;;;;;;5015596;28;20213;-41
2020/12/16 08:36:21;;;;;;;21.33;17.73;;;6.50;99.90;;;;;;5015441;28;20210;-41
2020/12/16 08:38:50;;;;;;;20.40;17.77;;;6.60;99.90;;;;;;5015346;28;20727;-41
2020/12/16 08:41:25;;;;;;;23.67;18.77;;;6.70;99.90;;;;;;5015529;28;20209;-43
2020/12/16 08:43:53;;;;;;;22.33;18.03;;;6.80;99.90;;;;;;5015595;28;20288;-43
2020/12/16 08:46:23;;;;;;;22.97;20.53;;;6.80;99.90;;;;;;5015387;28;20730;-42
2020/12/16 08:48:53;;;;;;;22.80;20.23;;;6.90;99.90;;;;;;5015278;28;20702;-42
2020/12/16 08:51:22;;;;;;;23.27;19.27;;;7.10;99.90;;;;;;5015544;28;20253;-42
2020/12/16 08:53:55;;;;;;;19.67;17.33;;;7.30;99.90;;;;;;5015111;28;20213;-42
2020/12/16 08:56:29;;;;;;;18.67;16.73;;;7.40;99.90;;;;;;5015322;28;20260;-42
2020/12/16 08:59:15;;;;;;;19.45;17.48;;;7.50;99.90;;;;;;5015182;28;20248;-42
2020/12/16 09:01:44;;;;;;;20.52;18.05;;;7.50;99.90;;;;;;5014863;28;20269;-45
2020/12/16 09:04:22;;;;;;;22.08;18.00;;;7.50;99.90;;;;;;5015032;28;20244;-43
2020/12/16 09:06:58;;;;;;;18.43;16.40;;;7.60;99.90;;;;;;5015271;28;20275;-44
2020/12/16 09:09:25;;;;;;;19.83;16.93;;;7.60;99.90;;;;;;5015045;28;20324;-43
2020/12/16 09:11:52;;;;;;;18.40;16.40;;;7.70;99.90;;;;;;5014752;28;20768;-44
2020/12/16 09:14:20;;;;;;;18.60;16.60;;;7.70;99.90;;;;;;5014915;28;20217;-42
2020/12/16 09:16:48;;;;;;;19.57;17.67;;;7.80;99.90;;;;;;5014796;28;20240;-42
2020/12/16 09:19:18;;;;;;;18.83;16.77;;;7.90;99.90;;;;;;5014752;28;20319;-42
2020/12/16 09:21:45;;;;;;;20.13;16.83;;;8.00;99.90;;;;;;5014667;28;20217;-42
2020/12/16 09:24:13;;;;;;;20.10;18.00;;;7.90;99.90;;;;;;5014443;28;20759;-41
2020/12/16 09:26:43;;;;;;;19.53;17.53;;;7.90;99.90;;;;;;5014439;28;20296;-41
2020/12/16 09:29:15;;;;;;;17.57;15.77;;;7.90;99.90;;;;;;5013347;28;20287;-46
2020/12/16 09:31:42;;;;;;;17.25;15.57;;;7.90;99.90;;;;;;5012575;28;20382;-46
2020/12/16 09:34:10;;;;;;;18.17;15.13;;;7.90;99.90;;;;;;4998241;28;20214;-42
2020/12/16 09:36:37;;;;;;;17.10;15.30;;;8.00;99.90;;;;;;4994926;28;20214;-41
2020/12/16 09:39:06;;;;;;;17.52;15.73;;;8.00;99.90;;;;;;4994632;28;20202;-45
2020/12/16 09:41:48;;;;;;;19.73;17.63;;;8.00;99.90;;;;;;4994373;28;20210;-42
2020/12/16 09:44:30;;;;;;;17.63;15.80;;;8.00;99.90;;;;;;4994589;28;20297;-44
2020/12/16 09:47:12;;;;;;;17.33;15.63;;;7.90;99.90;;;;;;4994344;28;20693;-41
2020/12/16 09:49:40;;;;;;;18.63;16.87;;;8.00;99.90;;;;;;4994406;28;20312;-42
2020/12/16 09:52:25;;;;;;;18.80;16.93;;;8.00;99.90;;;;;;4994214;28;20301;-41
2020/12/16 09:54:52;;;;;;;23.07;20.87;;;8.00;99.90;;;;;;4994413;28;20582;-42
2020/12/16 09:57:21;;;;;;;19.47;17.57;;;7.90;99.90;;;;;;4994359;28;20681;-41
2020/12/16 09:59:48;;;;;;;25.40;23.10;;;7.90;99.90;;;;;;4994113;28;20217;-43
2020/12/16 10:02:16;;;;;;;21.05;17.52;;;7.90;99.90;;;;;;4994320;28;20664;-43
2020/12/16 10:04:44;;;;;;;16.20;14.60;;;7.80;99.90;;;;;;4994349;28;20301;-43
2020/12/16 10:07:11;;;;;;;24.60;22.60;;;7.80;99.90;;;;;;4994121;28;20304;-42
2020/12/16 10:09:40;;;;;;;16.10;14.40;;;7.70;99.90;;;;;;4994174;28;20234;-42
2020/12/16 10:12:07;;;;;;;15.27;13.80;;;7.80;99.90;;;;;;4994085;28;20240;-42
2020/12/16 10:14:34;;;;;;;15.23;13.73;;;7.90;99.90;;;;;;4993911;28;20736;-41
2020/12/16 10:17:11;;;;;;;15.37;13.63;;;8.00;99.90;;;;;;4994068;28;20206;-44
2020/12/16 10:19:38;;;;;;;15.07;13.55;;;8.00;99.90;;;;;;4994240;28;20202;-41
2020/12/16 10:22:06;;;;;;;16.60;14.80;;;8.10;99.90;;;;;;4994121;28;20216;-47
2020/12/16 10:24:33;;;;;;;17.17;15.23;;;8.10;99.90;;;;;;4993914;28;20220;-43
2020/12/16 10:27:02;;;;;;;17.33;15.63;;;8.10;99.90;;;;;;4993794;28;20233;-42
2020/12/16 10:29:33;;;;;;;17.33;15.43;;;8.20;99.90;;;;;;4993819;28;20245;-41
2020/12/16 10:32:00;;;;;;;17.50;15.67;;;8.20;99.90;;;;;;4993693;28;20301;-43
2020/12/16 10:34:27;;;;;;;18.48;16.60;;;8.20;99.90;;;;;;4993876;28;20245;-43
2020/12/16 10:36:55;;;;;;;17.27;15.00;;;8.20;99.90;;;;;;4993505;28;20261;-43
2020/12/16 10:39:23;;;;;;;16.40;14.75;;;8.20;99.90;;;;;;4993135;28;20234;-41
2020/12/16 10:41:52;;;;;;;16.43;14.73;;;8.30;99.90;;;;;;4993759;28;20692;-40
2020/12/16 10:44:19;;;;;;;18.48;16.00;;;8.30;99.90;;;;;;4995448;28;20297;-41
2020/12/16 10:46:48;;;;;;;15.98;14.38;;;8.30;99.90;;;;;;4993188;28;20217;-42
2020/12/16 10:49:16;;;;;;;17.47;15.67;;;8.40;99.90;;;;;;4993236;28;20317;-43
2020/12/16 10:51:43;;;;;;;16.90;15.13;;;8.40;99.90;;;;;;4993232;28;20216;-41
2020/12/16 10:54:10;;;;;;;19.70;16.60;;;8.40;99.90;;;;;;4993019;28;20722;-41
2020/12/16 10:56:38;;;;;;;15.53;13.90;;;8.60;99.90;;;;;;4993213;28;20308;-42
2020/12/16 10:59:05;;;;;;;16.60;14.90;;;8.80;99.90;;;;;;4993054;28;20293;-41
2020/12/16 11:01:36;;;;;;;17.10;14.93;;;9.00;99.90;;;;;;4993019;28;20242;-43
2020/12/16 11:04:07;;;;;;;17.13;15.27;;;9.20;99.90;;;;;;4992984;28;20724;-41
2020/12/16 11:06:34;;;;;;;16.65;14.93;;;9.20;99.90;;;;;;4992926;28;20249;-41
2020/12/16 11:09:01;;;;;;;17.23;15.10;;;9.20;99.90;;;;;;4992904;28;20320;-42
2020/12/16 11:11:29;;;;;;;14.85;13.45;;;9.10;99.90;;;;;;4992848;28;20305;-40
2020/12/16 11:13:56;;;;;;;17.05;15.35;;;9.10;99.90;;;;;;4992858;28;20245;-41
2020/12/16 11:16:28;;;;;;;16.27;13.98;;;9.20;99.90;;;;;;4992630;28;20317;-41
2020/12/16 11:18:56;;;;;;;16.43;14.73;;;9.20;99.90;;;;;;4992671;28;20305;-42
2020/12/16 11:21:23;;;;;;;16.50;14.80;;;9.30;99.90;;;;;;4992908;28;20268;-43
2020/12/16 11:23:50;;;;;;;16.27;14.73;;;9.10;99.90;;;;;;4992903;28;20290;-41
2020/12/16 11:26:17;;;;;;;16.60;14.82;;;9.00;99.90;;;;;;4992658;28;20234;-40
2020/12/16 11:28:44;;;;;;;18.85;15.80;;;9.00;99.90;;;;;;4992683;28;20233;-41
2020/12/16 11:31:11;;;;;;;17.25;14.55;;;9.00;99.90;;;;;;4992611;28;20297;-40
2020/12/16 11:33:38;;;;;;;17.10;15.35;;;9.10;99.90;;;;;;4992204;28;20621;-40
2020/12/16 11:36:09;;;;;;;17.02;15.32;;;9.30;99.90;;;;;;4992697;28;20297;-41
2020/12/16 11:38:37;;;;;;;15.15;13.65;;;9.50;99.90;;;;;;4992666;28;20633;-41
2020/12/16 11:41:05;;;;;;;15.63;13.90;;;9.50;99.90;;;;;;4992384;28;20668;-40
2020/12/16 11:43:32;;;;;;;16.33;13.75;;;9.50;99.90;;;;;;4992508;28;20214;-41
2020/12/16 11:45:59;;;;;;;19.55;15.40;;;9.50;99.90;;;;;;4992412;28;20210;-41
2020/12/16 11:48:26;;;;;;;15.43;13.82;;;9.50;99.90;;;;;;4992192;28;20316;-42
2020/12/16 11:50:53;;;;;;;15.30;13.75;;;9.50;99.90;;;;;;4991672;28;20240;-40
2020/12/16 11:53:21;;;;;;;16.30;13.45;;;9.60;99.90;;;;;;4992420;28;20260;-41
2020/12/16 11:55:48;;;;;;;15.48;13.88;;;9.60;99.90;;;;;;4992404;28;20249;-41
2020/12/16 11:58:15;;;;;;;16.05;14.52;;;9.60;99.90;;;;;;4992328;28;20305;-41
2020/12/16 12:00:43;;;;;;;14.30;12.88;;;9.50;99.90;;;;;;4992127;28;20770;-41
2020/12/16 12:03:10;;;;;;;16.58;14.85;;;9.40;99.90;;;;;;4992433;28;20405;-41
2020/12/16 12:05:37;;;;;;;15.85;14.15;;;9.20;99.90;;;;;;4992262;28;20309;-44
2020/12/16 12:08:04;;;;;;;14.38;12.98;;;9.20;99.90;;;;;;4992369;28;20325;-43
2020/12/16 12:10:32;;;;;;;15.00;13.57;;;9.20;99.90;;;;;;4992340;28;20218;-44
2020/12/16 12:12:58;;;;;;;17.35;14.63;;;9.10;99.90;;;;;;4992374;28;20302;-41
2020/12/16 12:15:26;;;;;;;17.10;13.40;;;9.00;99.90;;;;;;4992090;28;20229;-44
2020/12/16 12:17:53;;;;;;;15.30;13.75;;;8.90;99.90;;;;;;4992232;28;20593;-44
2020/12/16 12:20:19;;;;;;;14.85;13.32;;;8.90;99.90;;;;;;4992248;28;20648;-41
2020/12/16 12:22:46;;;;;;;14.30;12.95;;;9.00;99.90;;;;;;4992191;28;20666;-41
2020/12/16 12:25:14;;;;;;;16.60;13.65;;;8.80;99.90;;;;;;4992224;28;20209;-40
2020/12/16 12:27:41;;;;;;;15.43;13.07;;;8.80;99.90;;;;;;4992090;28;20267;-41
2020/12/16 12:30:09;;;;;;;15.02;13.57;;;8.80;99.90;;;;;;4991909;28;20230;-41
2020/12/16 12:32:35;;;;;;;14.65;13.25;;;8.70;99.90;;;;;;4992343;28;20210;-41
2020/12/16 12:35:03;;;;;;;16.52;13.52;;;8.70;99.90;;;;;;4993897;28;20355;-41
2020/12/16 12:37:30;;;;;;;14.40;12.90;;;8.80;99.90;;;;;;4991944;28;20244;-42
2020/12/16 12:39:57;;;;;;;17.95;13.20;;;8.90;99.90;;;;;;4992050;28;20216;-41
2020/12/16 12:42:26;;;;;;;12.68;11.48;;;8.80;99.90;;;;;;4992038;28;20206;-41
2020/12/16 12:44:54;;;;;;;13.27;11.88;;;8.70;99.90;;;;;;4991633;28;20767;-40
2020/12/16 12:47:21;;;;;;;14.32;12.85;;;8.60;99.90;;;;;;4993430;28;20220;-40